sensor_id;sensor_type;location;lat;lon;timestamp;pressure;altitude;pressure_sealevel;temperature;humidity
5238;BME280;2639;49.700;7.962;2023-07-13T03:07:39;98844.44;;;12.98;100.00
5238;BME280;2639;49.700;7.962;2023-07-13T03:08:41;98844.44;;;12.98;100.00
5238;BME280;2639;49.700;7.962;2023-07-13T03:09:44;98852.19;;;12.98;100.00
5238;BME280;2639;49.700;7.962;2023-07-13T03:10:45;98848.59;;;12.96;100.00
5238;BME280;2639;49.700;7.962;2023-07-13T03:11:48;98844.22;;;12.95;100.00
5238;BME280;2639;49.700;7.962;2023-07-13T03:12:56;98845.84;;;12.93;100.00
5238;BME280;2639;49.700;7.962;2023-07-13T03:14:01;98849.00;;;12.89;100.00
5238;BME280;2639;49.700;7.962;2023-07-13T03:15:07;98848.00;;;12.87;100.00
5238;BME280;2639;49.700;7.962;2023-07-13T03:16:14;98857.09;;;12.81;100.00
5238;BME280;2639;49.700;7.962;2023-07-13T03:17:21;98844.22;;;12.81;100.00
5238;BME280;2639;49.700;7.962;2023-07-13T03:18:27;98848.16;;;12.76;100.00
5238;BME280;2639;49.700;7.962;2023-07-13T03:19:30;98853.28;;;12.76;100.00
5238;BME280;2639;49.700;7.962;2023-07-13T03:20:33;98849.94;;;12.77;100.00
5238;BME280;2639;49.700;7.962;2023-07-13T03:21:38;98849.94;;;12.77;100.00
5238;BME280;2639;49.700;7.962;2023-07-13T03:22:42;98855.31;;;12.80;100.00
5238;BME280;2639;49.700;7.962;2023-07-13T03:23:44;98860.44;;;12.80;100.00
5238;BME280;2639;49.700;7.962;2023-07-13T03:24:47;98861.44;;;12.82;100.00
5238;BME280;2639;49.700;7.962;2023-07-13T03:25:50;98856.41;;;12.84;100.00
5238;BME280;2639;49.700;7.962;2023-07-13T03:27:04;98855.53;;;12.83;100.00
5238;BME280;2639;49.700;7.962;2023-07-13T03:28:09;98857.31;;;12.84;100.00
5238;BME280;2639;49.700;7.962;2023-07-13T03:29:12;98864.44;;;12.89;100.00
5238;BME280;2639;49.700;7.962;2023-07-13T03:30:14;98859.50;;;12.92;100.00
5238;BME280;2639;49.700;7.962;2023-07-13T03:31:20;98872.56;;;12.95;100.00
5238;BME280;2639;49.700;7.962;2023-07-13T03:32:22;98862.50;;;12.98;100.00
5238;BME280;2639;49.700;7.962;2023-07-13T03:33:25;98866.84;;;12.99;100.00
5238;BME280;2639;49.700;7.962;2023-07-13T03:34:26;98870.41;;;13.01;100.00
5238;BME280;2639;49.700;7.962;2023-07-13T03:35:29;98862.88;;;13.04;100.00
5238;BME280;2639;49.700;7.962;2023-07-13T03:36:32;98869.25;;;13.09;100.00
5238;BME280;2639;49.700;7.962;2023-07-13T03:37:39;98871.22;;;13.13;100.00
5238;BME280;2639;49.700;7.962;2023-07-13T03:38:52;98879.19;;;13.16;100.00
5238;BME280;2639;49.700;7.962;2023-07-13T03:39:58;98869.88;;;13.18;100.00
5238;BME280;2639;49.700;7.962;2023-07-13T03:41:01;98878.56;;;13.20;100.00
5238;BME280;2639;49.700;7.962;2023-07-13T03:42:05;98880.38;;;13.21;100.00
5238;BME280;2639;49.700;7.962;2023-07-13T03:43:07;98880.50;;;13.23;100.00
5238;BME280;2639;49.700;7.962;2023-07-13T03:44:10;98873.66;;;13.23;100.00
5238;BME280;2639;49.700;7.962;2023-07-13T03:45:12;98873.72;;;13.25;100.00
5238;BME280;2639;49.700;7.962;2023-07-13T03:46:15;98873.84;;;13.26;100.00
5238;BME280;2639;49.700;7.962;2023-07-13T03:47:17;98871.41;;;13.28;99.72
5238;BME280;2639;49.700;7.962;2023-07-13T03:48:20;98873.19;;;13.29;100.00
5238;BME280;2639;49.700;7.962;2023-07-13T03:49:22;98877.63;;;13.32;100.00
5238;BME280;2639;49.700;7.962;2023-07-13T03:50:24;98870.91;;;13.34;99.89
5238;BME280;2639;49.700;7.962;2023-07-13T03:51:26;98879.63;;;13.36;99.15
5238;BME280;2639;49.700;7.962;2023-07-13T03:52:29;98877.06;;;13.36;98.97
5238;BME280;2639;49.700;7.962;2023-07-13T03:53:31;98881.34;;;13.35;99.21
5238;BME280;2639;49.700;7.962;2023-07-13T03:54:35;98882.09;;;13.34;99.57
5238;BME280;2639;49.700;7.962;2023-07-13T03:55:36;98878.63;;;13.34;98.88
5238;BME280;2639;49.700;7.962;2023-07-13T03:56:39;98870.00;;;13.33;99.06
5238;BME280;2639;49.700;7.962;2023-07-13T03:57:43;98883.78;;;13.34;99.81
5238;BME280;2639;49.700;7.962;2023-07-13T03:58:47;98875.19;;;13.33;99.90
5238;BME280;2639;49.700;7.962;2023-07-13T03:59:54;98882.09;;;13.34;99.56
5238;BME280;2639;49.700;7.962;2023-07-13T04:00:58;98872.72;;;13.35;99.72
5238;BME280;2639;49.700;7.962;2023-07-13T04:02:00;98878.06;;;13.38;99.86
5238;BME280;2639;49.700;7.962;2023-07-13T04:03:03;98888.19;;;13.35;99.94
5238;BME280;2639;49.700;7.962;2023-07-13T04:04:05;98881.22;;;13.34;100.00
5238;BME280;2639;49.700;7.962;2023-07-13T04:05:08;98871.13;;;13.37;100.00
5238;BME280;2639;49.700;7.962;2023-07-13T04:06:14;98880.06;;;13.42;100.00
5238;BME280;2639;49.700;7.962;2023-07-13T04:07:22;98871.72;;;13.46;100.00
5238;BME280;2639;49.700;7.962;2023-07-13T04:08:24;98878.06;;;13.51;99.99
5238;BME280;2639;49.700;7.962;2023-07-13T04:09:27;98874.09;;;13.56;99.65
5238;BME280;2639;49.700;7.962;2023-07-13T04:10:30;98871.63;;;13.58;98.86
5238;BME280;2639;49.700;7.962;2023-07-13T04:11:33;98875.88;;;13.57;98.55
5238;BME280;2639;49.700;7.962;2023-07-13T04:12:35;98876.97;;;13.61;98.89
5238;BME280;2639;49.700;7.962;2023-07-13T04:13:38;98871.81;;;13.61;98.44
5238;BME280;2639;49.700;7.962;2023-07-13T04:14:39;98874.50;;;13.62;97.93
5238;BME280;2639;49.700;7.962;2023-07-13T04:15:42;98876.28;;;13.63;98.51
5238;BME280;2639;49.700;7.962;2023-07-13T04:16:44;98877.28;;;13.65;97.87
5238;BME280;2639;49.700;7.962;2023-07-13T04:17:47;98881.84;;;13.70;97.61
5238;BME280;2639;49.700;7.962;2023-07-13T04:18:50;98868.25;;;13.72;97.83
5238;BME280;2639;49.700;7.962;2023-07-13T04:19:56;98871.00;;;13.75;98.39
5238;BME280;2639;49.700;7.962;2023-07-13T04:20:57;98866.94;;;13.79;99.17
5238;BME280;2639;49.700;7.962;2023-07-13T04:22:00;98867.13;;;13.82;98.88
5238;BME280;2639;49.700;7.962;2023-07-13T04:23:02;98865.75;;;13.87;99.42
5238;BME280;2639;49.700;7.962;2023-07-13T04:24:05;98860.75;;;13.90;99.10
5238;BME280;2639;49.700;7.962;2023-07-13T04:25:07;98871.31;;;13.93;99.25
5238;BME280;2639;49.700;7.962;2023-07-13T04:26:11;98876.66;;;13.96;98.95
5238;BME280;2639;49.700;7.962;2023-07-13T04:27:13;98876.06;;;14.00;99.07
5238;BME280;2639;49.700;7.962;2023-07-13T04:28:16;98878.81;;;14.03;99.29
5238;BME280;2639;49.700;7.962;2023-07-13T04:29:18;98874.66;;;14.05;98.30
5238;BME280;2639;49.700;7.962;2023-07-13T04:30:21;98878.13;;;14.06;97.32
5238;BME280;2639;49.700;7.962;2023-07-13T04:31:23;98876.53;;;14.08;96.48
5238;BME280;2639;49.700;7.962;2023-07-13T04:32:26;98869.88;;;14.12;96.76
5238;BME280;2639;49.700;7.962;2023-07-13T04:33:28;98877.81;;;14.15;96.15
5238;BME280;2639;49.700;7.962;2023-07-13T04:34:30;98879.78;;;14.19;96.78
5238;BME280;2639;49.700;7.962;2023-07-13T04:35:32;98876.59;;;14.23;96.38
5238;BME280;2639;49.700;7.962;2023-07-13T04:36:35;98878.78;;;14.30;95.97
5238;BME280;2639;49.700;7.962;2023-07-13T04:37:39;98872.91;;;14.32;96.16
5238;BME280;2639;49.700;7.962;2023-07-13T04:38:41;98873.97;;;14.36;97.00
5238;BME280;2639;49.700;7.962;2023-07-13T04:39:43;98881.13;;;14.40;96.13
5238;BME280;2639;49.700;7.962;2023-07-13T04:40:46;98885.78;;;14.46;95.79
5238;BME280;2639;49.700;7.962;2023-07-13T04:41:50;98878.31;;;14.50;96.17
5238;BME280;2639;49.700;7.962;2023-07-13T04:42:53;98883.78;;;14.55;95.34
5238;BME280;2639;49.700;7.962;2023-07-13T04:43:54;98882.09;;;14.56;94.21
5238;BME280;2639;49.700;7.962;2023-07-13T04:44:57;98888.16;;;14.56;94.09
5238;BME280;2639;49.700;7.962;2023-07-13T04:46:03;98887.28;;;14.56;93.11
5238;BME280;2639;49.700;7.962;2023-07-13T04:47:07;98873.53;;;14.57;93.76
5238;BME280;2639;49.700;7.962;2023-07-13T04:48:08;98887.56;;;14.60;93.63
5238;BME280;2639;49.700;7.962;2023-07-13T04:49:11;98888.44;;;14.61;93.74
5238;BME280;2639;49.700;7.962;2023-07-13T04:50:13;98882.44;;;14.62;93.98
5238;BME280;2639;49.700;7.962;2023-07-13T04:51:23;98883.16;;;14.59;93.48
5238;BME280;2639;49.700;7.962;2023-07-13T04:52:25;98882.28;;;14.59;94.01
5238;BME280;2639;49.700;7.962;2023-07-13T04:53:29;98886.47;;;14.57;93.81
5238;BME280;2639;49.700;7.962;2023-07-13T04:54:31;98890.63;;;14.55;94.54
5238;BME280;2639;49.700;7.962;2023-07-13T04:55:33;98886.94;;;14.51;94.94
5238;BME280;2639;49.700;7.962;2023-07-13T04:56:35;98887.03;;;14.52;95.08
5238;BME280;2639;49.700;7.962;2023-07-13T04:57:39;98883.66;;;14.53;95.17
5238;BME280;2639;49.700;7.962;2023-07-13T04:58:41;98892.44;;;14.56;95.24
5238;BME280;2639;49.700;7.962;2023-07-13T04:59:44;98890.84;;;14.58;94.48
5238;BME280;2639;49.700;7.962;2023-07-13T05:00:45;98890.13;;;14.60;95.34
5238;BME280;2639;49.700;7.962;2023-07-13T06:37:22;98920.94;;;18.77;67.85
5238;BME280;2639;49.700;7.962;2023-07-13T06:38:24;98920.34;;;18.83;67.21
5238;BME280;2639;49.700;7.962;2023-07-13T06:39:27;98927.59;;;18.90;67.43
5238;BME280;2639;49.700;7.962;2023-07-13T06:40:28;98927.72;;;18.93;65.28
5238;BME280;2639;49.700;7.962;2023-07-13T06:41:32;98924.53;;;18.99;64.86
5238;BME280;2639;49.700;7.962;2023-07-13T06:42:34;98920.41;;;19.04;64.79
5238;BME280;2639;49.700;7.962;2023-07-13T06:43:37;98932.03;;;19.12;66.04
5238;BME280;2639;49.700;7.962;2023-07-13T06:44:39;98931.25;;;19.14;65.16
5238;BME280;2639;49.700;7.962;2023-07-13T06:45:44;98928.81;;;19.18;63.92
5238;BME280;2639;49.700;7.962;2023-07-13T06:46:47;98933.38;;;19.23;64.69
5238;BME280;2639;49.700;7.962;2023-07-13T06:47:50;98929.22;;;19.27;64.66
5238;BME280;2639;49.700;7.962;2023-07-13T06:48:51;98928.66;;;19.34;64.63
5238;BME280;2639;49.700;7.962;2023-07-13T06:49:53;98943.72;;;19.41;64.39
5238;BME280;2639;49.700;7.962;2023-07-13T06:50:56;98937.94;;;19.48;64.64
5238;BME280;2639;49.700;7.962;2023-07-13T06:51:58;98943.22;;;19.50;63.60
5238;BME280;2639;49.700;7.962;2023-07-13T06:53:02;98942.31;;;19.49;63.71
5238;BME280;2639;49.700;7.962;2023-07-13T06:54:04;98942.31;;;19.49;63.51
5238;BME280;2639;49.700;7.962;2023-07-13T06:55:07;98936.38;;;19.52;64.26
5238;BME280;2639;49.700;7.962;2023-07-13T06:56:10;98944.09;;;19.50;63.34
5238;BME280;2639;49.700;7.962;2023-07-13T06:57:12;98939.00;;;19.53;62.34
5238;BME280;2639;49.700;7.962;2023-07-13T06:58:15;98937.38;;;19.55;63.02
5238;BME280;2639;49.700;7.962;2023-07-13T06:59:19;98937.63;;;19.62;63.48
5238;BME280;2639;49.700;7.962;2023-07-13T07:00:21;98939.56;;;19.66;61.82
5238;BME280;2639;49.700;7.962;2023-07-13T07:01:24;98938.06;;;19.71;62.14
5238;BME280;2639;49.700;7.962;2023-07-13T07:02:25;98939.97;;;19.75;62.10
5238;BME280;2639;49.700;7.962;2023-07-13T07:03:28;98944.59;;;19.82;62.50
5238;BME280;2639;49.700;7.962;2023-07-13T07:04:30;98934.38;;;19.87;60.84
5238;BME280;2639;49.700;7.962;2023-07-13T07:05:33;98946.63;;;19.89;61.91
5238;BME280;2639;49.700;7.962;2023-07-13T07:06:35;98944.13;;;19.92;62.34
5238;BME280;2639;49.700;7.962;2023-07-13T07:07:37;98937.28;;;19.94;60.47
5238;BME280;2639;49.700;7.962;2023-07-13T07:08:40;98945.16;;;19.96;61.48
5238;BME280;2639;49.700;7.962;2023-07-13T07:09:43;98944.25;;;19.95;60.43
5238;BME280;2639;49.700;7.962;2023-07-13T07:10:45;98946.16;;;20.00;61.23
5238;BME280;2639;49.700;7.962;2023-07-13T07:11:48;98947.13;;;20.02;59.98
5238;BME280;2639;49.700;7.962;2023-07-13T07:13:04;98936.00;;;20.06;60.19
5238;BME280;2639;49.700;7.962;2023-07-13T07:14:07;98943.13;;;20.10;59.56
5238;BME280;2639;49.700;7.962;2023-07-13T07:15:09;98944.88;;;20.11;58.98
5238;BME280;2639;49.700;7.962;2023-07-13T07:16:12;98943.34;;;20.16;59.29
5238;BME280;2639;49.700;7.962;2023-07-13T07:17:14;98943.34;;;20.16;58.49
5238;BME280;2639;49.700;7.962;2023-07-13T07:18:17;98939.25;;;20.23;59.01
5238;BME280;2639;49.700;7.962;2023-07-13T07:19:18;98938.50;;;20.25;59.56
5238;BME280;2639;49.700;7.962;2023-07-13T07:20:21;98947.28;;;20.27;58.27
5238;BME280;2639;49.700;7.962;2023-07-13T07:21:23;98940.41;;;20.29;58.81
5238;BME280;2639;49.700;7.962;2023-07-13T07:22:27;98938.84;;;20.34;57.85
5238;BME280;2639;49.700;7.962;2023-07-13T07:23:29;98944.19;;;20.37;57.90
5238;BME280;2639;49.700;7.962;2023-07-13T07:24:32;98952.84;;;20.36;57.89
5238;BME280;2639;49.700;7.962;2023-07-13T07:25:34;98941.00;;;20.45;58.29
5238;BME280;2639;49.700;7.962;2023-07-13T07:26:38;98948.09;;;20.49;57.75
5238;BME280;2639;49.700;7.962;2023-07-13T07:27:44;98945.47;;;20.49;57.33
5238;BME280;2639;49.700;7.962;2023-07-13T07:28:49;98946.44;;;20.51;57.53
5238;BME280;2639;49.700;7.962;2023-07-13T07:30:12;98943.25;;;20.58;57.64
5238;BME280;2639;49.700;7.962;2023-07-13T07:31:17;98940.78;;;20.61;57.70
5238;BME280;2639;49.700;7.962;2023-07-13T07:32:22;98939.94;;;20.62;58.18
5238;BME280;2639;49.700;7.962;2023-07-13T07:33:27;98945.63;;;20.74;58.85
5238;BME280;2639;49.700;7.962;2023-07-13T07:34:30;98951.69;;;20.73;57.50
5238;BME280;2639;49.700;7.962;2023-07-13T07:35:32;98947.63;;;20.81;57.78
5238;BME280;2639;49.700;7.962;2023-07-13T07:36:42;98941.66;;;20.84;58.01
5238;BME280;2639;49.700;7.962;2023-07-13T07:37:47;98940.88;;;20.87;56.90
5238;BME280;2639;49.700;7.962;2023-07-13T07:38:51;98935.69;;;20.88;57.33
5238;BME280;2639;49.700;7.962;2023-07-13T07:39:54;98934.19;;;20.95;58.22
5238;BME280;2639;49.700;7.962;2023-07-13T07:41:03;98942.19;;;20.99;56.94
5238;BME280;2639;49.700;7.962;2023-07-13T07:42:08;98929.22;;;21.01;57.50
5238;BME280;2639;49.700;7.962;2023-07-13T07:43:12;98931.91;;;21.04;57.48
5238;BME280;2639;49.700;7.962;2023-07-13T07:44:14;98932.00;;;21.06;57.51
5238;BME280;2639;49.700;7.962;2023-07-13T07:45:17;98933.81;;;21.08;57.50
5238;BME280;2639;49.700;7.962;2023-07-13T07:46:18;98926.81;;;21.07;57.28
5238;BME280;2639;49.700;7.962;2023-07-13T07:47:21;98932.00;;;21.06;57.15
5238;BME280;2639;49.700;7.962;2023-07-13T07:48:25;98936.44;;;21.08;57.12
5238;BME280;2639;49.700;7.962;2023-07-13T07:49:27;98934.94;;;21.15;57.33
5238;BME280;2639;49.700;7.962;2023-07-13T07:50:30;98930.84;;;21.23;56.74
5238;BME280;2639;49.700;7.962;2023-07-13T07:51:33;98929.34;;;21.30;57.13
5238;BME280;2639;49.700;7.962;2023-07-13T07:52:34;98927.69;;;21.32;56.57
5238;BME280;2639;49.700;7.962;2023-07-13T07:53:37;98930.28;;;21.32;57.04
5238;BME280;2639;49.700;7.962;2023-07-13T07:54:39;98929.59;;;21.37;56.44
5238;BME280;2639;49.700;7.962;2023-07-13T07:55:46;98934.13;;;21.41;55.71
5238;BME280;2639;49.700;7.962;2023-07-13T07:56:52;98932.53;;;21.45;55.96
5238;BME280;2639;49.700;7.962;2023-07-13T07:57:57;98930.97;;;21.50;55.87
5238;BME280;2639;49.700;7.962;2023-07-13T07:59:02;98931.91;;;21.52;55.67
5238;BME280;2639;49.700;7.962;2023-07-13T08:00:08;98935.63;;;21.59;55.80
5238;BME280;2639;49.700;7.962;2023-07-13T08:01:16;98931.38;;;21.62;57.13
5238;BME280;2639;49.700;7.962;2023-07-13T08:02:22;98933.19;;;21.65;55.91
5238;BME280;2639;49.700;7.962;2023-07-13T08:03:26;98934.28;;;21.72;56.30
5238;BME280;2639;49.700;7.962;2023-07-13T08:04:49;98931.00;;;21.77;55.04
5238;BME280;2639;49.700;7.962;2023-07-13T08:05:54;98933.78;;;21.82;56.10
5238;BME280;2639;49.700;7.962;2023-07-13T08:06:59;98933.06;;;21.88;55.38
5238;BME280;2639;49.700;7.962;2023-07-13T08:08:04;98935.75;;;21.89;55.80
5238;BME280;2639;49.700;7.962;2023-07-13T08:09:07;98930.53;;;21.89;55.14
5238;BME280;2639;49.700;7.962;2023-07-13T08:10:09;98933.16;;;21.91;54.30
5238;BME280;2639;49.700;7.962;2023-07-13T08:11:13;98930.41;;;21.86;54.55
5238;BME280;2639;49.700;7.962;2023-07-13T08:12:18;98933.13;;;21.89;54.30
5238;BME280;2639;49.700;7.962;2023-07-13T08:13:41;98931.63;;;21.97;55.22
5238;BME280;2639;49.700;7.962;2023-07-13T08:14:43;98929.16;;;22.00;55.31
5238;BME280;2639;49.700;7.962;2023-07-13T08:15:54;98931.06;;;22.06;55.17
5238;BME280;2639;49.700;7.962;2023-07-13T08:16:55;98929.44;;;22.10;54.82
5238;BME280;2639;49.700;7.962;2023-07-13T08:17:58;98919.06;;;22.13;55.50
5238;BME280;2639;49.700;7.962;2023-07-13T08:19:00;98923.56;;;22.17;54.64
5238;BME280;2639;49.700;7.962;2023-07-13T08:20:03;98921.16;;;22.23;53.95
5238;BME280;2639;49.700;7.962;2023-07-13T08:21:06;98926.38;;;22.23;53.63
5238;BME280;2639;49.700;7.962;2023-07-13T08:22:09;98928.50;;;22.35;54.63
5238;BME280;2639;49.700;7.962;2023-07-13T08:23:11;98924.34;;;22.41;52.94
5238;BME280;2639;49.700;7.962;2023-07-13T08:24:14;98918.44;;;22.48;53.84
5238;BME280;2639;49.700;7.962;2023-07-13T08:25:16;98920.38;;;22.54;52.89
5238;BME280;2639;49.700;7.962;2023-07-13T08:26:20;98917.03;;;22.60;52.80
5238;BME280;2639;49.700;7.962;2023-07-13T08:27:24;98914.56;;;22.64;53.84
5238;BME280;2639;49.700;7.962;2023-07-13T08:28:27;98922.38;;;22.63;53.21
5238;BME280;2639;49.700;7.962;2023-07-13T08:29:29;98924.34;;;22.70;53.35
5238;BME280;2639;49.700;7.962;2023-07-13T08:30:33;98928.78;;;22.74;53.69
5238;BME280;2639;49.700;7.962;2023-07-13T08:31:34;98927.97;;;22.75;53.24
5238;BME280;2639;49.700;7.962;2023-07-13T08:32:37;98924.59;;;22.79;52.82
5238;BME280;2639;49.700;7.962;2023-07-13T08:33:39;98919.53;;;22.85;52.24
5238;BME280;2639;49.700;7.962;2023-07-13T08:34:42;98923.06;;;22.87;52.86
5238;BME280;2639;49.700;7.962;2023-07-13T08:35:45;98923.88;;;22.85;51.64
5238;BME280;2639;49.700;7.962;2023-07-13T08:36:48;98925.63;;;22.84;53.08
5238;BME280;2639;49.700;7.962;2023-07-13T08:37:49;98923.66;;;22.77;52.59
5238;BME280;2639;49.700;7.962;2023-07-13T08:38:52;98917.50;;;22.75;53.55
5238;BME280;2639;49.700;7.962;2023-07-13T08:39:54;98917.50;;;22.75;52.98
5238;BME280;2639;49.700;7.962;2023-07-13T08:40:57;98915.63;;;22.71;51.97
5238;BME280;2639;49.700;7.962;2023-07-13T08:42:02;98917.44;;;22.74;52.94
5238;BME280;2639;49.700;7.962;2023-07-13T08:43:13;98919.19;;;22.73;52.33
5238;BME280;2639;49.700;7.962;2023-07-13T08:44:23;98926.28;;;22.77;52.77
5238;BME280;2639;49.700;7.962;2023-07-13T08:45:36;98926.19;;;22.74;52.44
5238;BME280;2639;49.700;7.962;2023-07-13T08:46:40;98927.97;;;22.75;51.75
5238;BME280;2639;49.700;7.962;2023-07-13T08:47:48;98919.19;;;22.73;52.15
5238;BME280;2639;49.700;7.962;2023-07-13T08:48:58;98924.50;;;22.76;52.25
5238;BME280;2639;49.700;7.962;2023-07-13T08:50:03;98930.81;;;22.83;52.00
5238;BME280;2639;49.700;7.962;2023-07-13T08:51:11;98927.47;;;22.88;51.25
5238;BME280;2639;49.700;7.962;2023-07-13T08:52:26;98918.97;;;22.96;51.38
5238;BME280;2639;49.700;7.962;2023-07-13T08:53:36;98925.06;;;22.96;51.84
5238;BME280;2639;49.700;7.962;2023-07-13T08:54:44;98923.22;;;22.92;51.78
5238;BME280;2639;49.700;7.962;2023-07-13T08:55:58;98920.72;;;22.97;51.67
5238;BME280;2639;49.700;7.962;2023-07-13T08:57:11;98923.56;;;23.03;51.61
5238;BME280;2639;49.700;7.962;2023-07-13T08:58:16;98918.31;;;23.03;50.78
5238;BME280;2639;49.700;7.962;2023-07-13T08:59:22;98922.75;;;23.05;50.02
5238;BME280;2639;49.700;7.962;2023-07-13T09:00:35;98916.78;;;23.11;52.06
5238;BME280;2639;49.700;7.962;2023-07-13T09:01:55;98908.84;;;23.08;50.14
5238;BME280;2639;49.700;7.962;2023-07-13T09:03:02;98923.88;;;23.15;50.60
5238;BME280;2639;49.700;7.962;2023-07-13T09:04:08;98922.38;;;23.23;51.49
5238;BME280;2639;49.700;7.962;2023-07-13T09:05:14;98917.13;;;23.23;49.12
5238;BME280;2639;49.700;7.962;2023-07-13T09:06:31;98927.75;;;23.29;49.44
5238;BME280;2639;49.700;7.962;2023-07-13T09:07:50;98922.88;;;23.42;49.70
5238;BME280;2639;49.700;7.962;2023-07-13T09:09:00;98913.69;;;23.59;49.79
5238;BME280;2639;49.700;7.962;2023-07-13T09:10:12;98914.91;;;23.73;48.71
5238;BME280;2639;49.700;7.962;2023-07-13T09:11:26;98909.94;;;23.83;47.93
5238;BME280;2639;49.700;7.962;2023-07-13T09:12:38;98908.16;;;23.82;47.10
5238;BME280;2639;49.700;7.962;2023-07-13T09:13:50;98909.28;;;23.91;47.74
5238;BME280;2639;49.700;7.962;2023-07-13T09:14:57;98910.25;;;23.95;47.29
5238;BME280;2639;49.700;7.962;2023-07-13T09:16:03;98914.81;;;24.04;47.81
5238;BME280;2639;49.700;7.962;2023-07-13T09:17:11;98908.41;;;23.91;48.11
5238;BME280;2639;49.700;7.962;2023-07-13T09:18:19;98912.75;;;23.90;48.37
5238;BME280;2639;49.700;7.962;2023-07-13T09:19:32;98917.31;;;23.98;47.74
5238;BME280;2639;49.700;7.962;2023-07-13T09:20:39;98915.63;;;24.01;48.26
5238;BME280;2639;49.700;7.962;2023-07-13T09:21:44;98908.84;;;24.09;48.02
5238;BME280;2639;49.700;7.962;2023-07-13T09:22:48;98910.53;;;24.07;46.93
5238;BME280;2639;49.700;7.962;2023-07-13T09:23:53;98899.88;;;24.01;46.71
5238;BME280;2639;49.700;7.962;2023-07-13T09:25:00;98905.28;;;24.07;48.17
5238;BME280;2639;49.700;7.962;2023-07-13T09:26:05;98902.63;;;24.06;46.83
5238;BME280;2639;49.700;7.962;2023-07-13T09:27:14;98903.59;;;24.09;47.37
5238;BME280;2639;49.700;7.962;2023-07-13T09:28:24;98907.25;;;24.18;46.85
5238;BME280;2639;49.700;7.962;2023-07-13T09:29:30;98913.75;;;24.33;48.19
5238;BME280;2639;49.700;7.962;2023-07-13T09:30:39;98905.91;;;24.35;46.58
5238;BME280;2639;49.700;7.962;2023-07-13T09:31:47;98913.84;;;24.38;46.73
5238;BME280;2639;49.700;7.962;2023-07-13T09:32:53;98904.41;;;24.46;47.58
5238;BME280;2639;49.700;7.962;2023-07-13T09:33:55;98911.66;;;24.56;46.86
5238;BME280;2639;49.700;7.962;2023-07-13T09:34:58;98908.06;;;24.51;46.01
5238;BME280;2639;49.700;7.962;2023-07-13T09:36:17;98905.38;;;24.50;45.99
5238;BME280;2639;49.700;7.962;2023-07-13T09:37:21;98912.25;;;24.45;45.32
5238;BME280;2639;49.700;7.962;2023-07-13T09:38:27;98901.06;;;24.52;47.04
5238;BME280;2639;49.700;7.962;2023-07-13T09:39:35;98910.06;;;24.63;46.50
5238;BME280;2639;49.700;7.962;2023-07-13T09:40:46;98904.03;;;24.67;45.95
5238;BME280;2639;49.700;7.962;2023-07-13T09:41:57;98905.09;;;24.77;45.51
5238;BME280;2639;49.700;7.962;2023-07-13T09:43:03;98903.16;;;24.68;45.49
5238;BME280;2639;49.700;7.962;2023-07-13T09:44:10;98912.94;;;24.75;45.59
5238;BME280;2639;49.700;7.962;2023-07-13T09:45:17;98902.56;;;24.82;46.06
5238;BME280;2639;49.700;7.962;2023-07-13T09:46:28;98900.06;;;24.89;45.02
5238;BME280;2639;49.700;7.962;2023-07-13T09:47:31;98889.69;;;24.95;45.43
5238;BME280;2639;49.700;7.962;2023-07-13T09:48:35;98891.63;;;25.06;45.51
5238;BME280;2639;49.700;7.962;2023-07-13T09:49:37;98897.06;;;25.15;45.57
5238;BME280;2639;49.700;7.962;2023-07-13T09:50:40;98893.72;;;25.22;44.82
5238;BME280;2639;49.700;7.962;2023-07-13T09:51:42;98897.34;;;25.29;43.58
5238;BME280;2639;49.700;7.962;2023-07-13T09:52:47;98894.06;;;25.40;44.23
5238;BME280;2639;49.700;7.962;2023-07-13T09:53:49;98904.75;;;25.50;43.81
5238;BME280;2639;49.700;7.962;2023-07-13T09:54:53;98897.56;;;25.39;43.87
5238;BME280;2639;49.700;7.962;2023-07-13T09:56:00;98899.06;;;25.25;44.35
5238;BME280;2639;49.700;7.962;2023-07-13T09:57:13;98907.56;;;25.15;45.17
5238;BME280;2639;49.700;7.962;2023-07-13T09:58:16;98917.22;;;25.14;45.37
5238;BME280;2639;49.700;7.962;2023-07-13T09:59:24;98912.75;;;25.10;45.81
5238;BME280;2639;49.700;7.962;2023-07-13T10:00:28;98918.59;;;24.95;45.34
5238;BME280;2639;49.700;7.962;2023-07-13T10:01:34;98911.13;;;24.73;44.73
5238;BME280;2639;49.700;7.962;2023-07-13T10:02:36;98920.59;;;24.66;44.91
5238;BME280;2639;49.700;7.962;2023-07-13T10:03:39;98928.09;;;24.48;45.27
5238;BME280;2639;49.700;7.962;2023-07-13T10:04:43;98919.81;;;24.31;46.02
5238;BME280;2639;49.700;7.962;2023-07-13T10:05:48;98924.91;;;24.25;46.26
5238;BME280;2639;49.700;7.962;2023-07-13T10:07:05;98917.91;;;24.24;46.62
5238;BME280;2639;49.700;7.962;2023-07-13T10:08:29;98917.63;;;24.11;45.88
5238;BME280;2639;49.700;7.962;2023-07-13T10:09:32;98915.84;;;24.10;46.11
5238;BME280;2639;49.700;7.962;2023-07-13T10:10:35;98917.53;;;24.08;47.11
5238;BME280;2639;49.700;7.962;2023-07-13T10:11:40;98914.91;;;24.07;46.40
5238;BME280;2639;49.700;7.962;2023-07-13T10:12:44;98911.25;;;24.02;46.51
5238;BME280;2639;49.700;7.962;2023-07-13T10:13:51;98920.88;;;24.01;45.99
5238;BME280;2639;49.700;7.962;2023-07-13T10:14:56;98912.94;;;24.00;45.20
5238;BME280;2639;49.700;7.962;2023-07-13T10:16:17;98919.31;;;24.09;45.47
5238;BME280;2639;49.700;7.962;2023-07-13T10:17:26;98919.44;;;24.15;45.98
5238;BME280;2639;49.700;7.962;2023-07-13T10:18:39;98909.88;;;24.16;45.86
5238;BME280;2639;49.700;7.962;2023-07-13T10:19:44;98916.00;;;24.17;45.67
5238;BME280;2639;49.700;7.962;2023-07-13T10:20:47;98921.97;;;24.11;46.19
5238;BME280;2639;49.700;7.962;2023-07-13T10:21:54;98922.72;;;24.05;45.51
5238;BME280;2639;49.700;7.962;2023-07-13T10:23:00;98921.69;;;23.99;45.63
5238;BME280;2639;49.700;7.962;2023-07-13T10:24:11;98918.88;;;23.91;46.01
5238;BME280;2639;49.700;7.962;2023-07-13T10:25:18;98910.91;;;23.88;45.59
5238;BME280;2639;49.700;7.962;2023-07-13T10:26:23;98906.53;;;23.87;46.21
5238;BME280;2639;49.700;7.962;2023-07-13T10:27:33;98912.66;;;23.87;46.09
5238;BME280;2639;49.700;7.962;2023-07-13T10:28:37;98918.03;;;23.92;46.32
5238;BME280;2639;49.700;7.962;2023-07-13T10:29:45;98912.78;;;23.92;46.21
5238;BME280;2639;49.700;7.962;2023-07-13T10:30:49;98917.19;;;23.93;45.92
5238;BME280;2639;49.700;7.962;2023-07-13T10:31:54;98919.66;;;23.87;46.20
5238;BME280;2639;49.700;7.962;2023-07-13T10:33:02;98911.75;;;23.85;47.35
5238;BME280;2639;49.700;7.962;2023-07-13T10:34:08;98919.59;;;23.84;46.53
5238;BME280;2639;49.700;7.962;2023-07-13T10:35:14;98914.34;;;23.84;47.14